Deep Seas — ZCPR4 — position and weather

sailwx.info

Track history (hours):
 
Tides and Currents Weather Stations Pressure Air Temp Water Temp Dewpoint Dewpoint Depression Visibility Wind Speed Wind Dir Waves Ship Positions

Deep Seas

Last reported at 2014-Dec-05 23:19 UTC. Time now 2014-Dec-19 01:31 UTC.
Position N 31°24' E 032°19'.
Warning: this ship's position is 13 days out of date.

Length 225 m; draft 13.1 m.

Type: Cargo ship. MMSI: 319138000.

Date/timePositionNaut miles runAvg speedWind from/ knotsBaromVisibWave heightAir tempDewpointWater temp
2014-Dec-05 23:19N 31°24' E 032°19'0 0.0
2014-Dec-05 22:19N 31°24' E 032°19'0 0.0
2014-Dec-05 21:34N 31°24' E 032°19'0 0.0
2014-Dec-05 19:25N 31°24' E 032°19'0 0.0
2014-Dec-05 18:31N 31°24' E 032°19'0 0.0
2014-Dec-05 13:25N 31°24' E 032°19'0 0.0
2014-Dec-05 12:34N 31°24' E 032°19'0 0.0
2014-Dec-05 10:04N 31°24' E 032°19'1 2.3
2014-Dec-05 09:32N 31°24' E 032°18'3310.5
2014-Dec-05 06:24N 31°49' E 031°52'911.1
2014-Dec-05 05:33N 31°56' E 031°45'2211.1
2014-Dec-05 03:33N 32°12' E 031°27'1411.1
2014-Dec-05 02:17N 32°22' E 031°15'31410.6
2014-Dec-03 20:33N 36°15' E 026°60'11 9.9
2014-Dec-03 19:28N 36°23' E 026°51'11 9.7
2014-Dec-03 18:20N 36°31' E 026°42'8 9.0
2014-Dec-03 17:30N 36°37' E 026°36'8 8.5
2014-Dec-03 16:33N 36°44' E 026°29'9 9.1
2014-Dec-03 15:32N 36°50' E 026°21'9 9.2
2014-Dec-03 14:33N 36°57' E 026°14'9 9.1
2014-Dec-03 13:33N 37°05' E 026°08'9 9.3
2014-Dec-03 12:34N 37°13' E 026°02'10 9.5
2014-Dec-03 11:34N 37°21' E 025°56'10 9.5
2014-Dec-03 10:34N 37°29' E 025°50'9 9.1
2014-Dec-03 09:34N 37°38' E 025°46'9 9.2
2014-Dec-03 08:33N 37°47' E 025°46'9 9.5
2014-Dec-03 07:34N 37°56' E 025°45'123 9.8
2014-Dec-02 19:07N 39°58' E 025°57'137 5.8
2014-Dec-01 19:24N 40°54' E 028°42'1010.7
2014-Dec-01 18:30N 40°56' E 028°54'7 7.5
2014-Dec-01 17:33N 41°02' E 028°60'1410.5
2014-Dec-01 16:12N 41°15' E 029°08'4 6.5
2014-Dec-01 15:33N 41°18' E 029°09'6 6.3
2014-Dec-01 14:33N 41°25' E 029°09'1 0.7
2014-Dec-01 13:18N 41°26' E 029°09'0 0.6
2014-Dec-01 12:33N 41°26' E 029°09'1 0.4
2014-Dec-01 11:20N 41°27' E 029°09'1 0.5
2014-Dec-01 09:28N 41°26' E 029°08'5 1.2
2014-Dec-01 05:30N 41°24' E 029°13'1010.3
2014-Dec-01 04:33N 41°26' E 029°25'1010.1
2014-Dec-01 03:33N 41°30' E 029°38'37810.5
2014-Nov-29 15:27N 44°23' E 037°17'1011.5
2014-Nov-29 14:33N 44°28' E 037°30'1211.9
2014-Nov-29 13:33N 44°33' E 037°45'8 8.2
2014-Nov-29 12:33N 44°34' E 037°57'0 0.0
2014-Nov-29 11:33N 44°34' E 037°57'0 0.0
2014-Nov-29 10:33N 44°34' E 037°57'0 0.0
2014-Nov-29 09:33N 44°34' E 037°57'0 0.1
2014-Nov-29 08:33N 44°34' E 037°57'0 0.0
2014-Nov-29 07:33N 44°34' E 037°57'0 0.0
2014-Nov-29 06:31N 44°34' E 037°57'0 0.0
2014-Nov-29 05:31N 44°34' E 037°57'0 0.0
2014-Nov-29 04:32N 44°34' E 037°57'0 0.0
2014-Nov-29 03:32N 44°34' E 037°57'0 0.0
2014-Nov-29 02:29N 44°34' E 037°57'0 0.0
2014-Nov-29 01:32N 44°34' E 037°57'0 0.0
2014-Nov-29 00:32N 44°34' E 037°57'0 0.0
2014-Nov-28 23:32N 44°34' E 037°57'0 0.0
2014-Nov-28 22:32N 44°34' E 037°57'0 0.0
2014-Nov-28 21:32N 44°34' E 037°57'0 0.1
2014-Nov-28 20:31N 44°34' E 037°57'0 0.0
2014-Nov-28 19:31N 44°34' E 037°57'0 0.0
2014-Nov-28 18:31N 44°34' E 037°57'0 0.1
2014-Nov-28 17:31N 44°34' E 037°57'0 0.0
2014-Nov-28 16:33N 44°34' E 037°57'0 0.0
2014-Nov-28 15:33N 44°34' E 037°57'0 0.0
2014-Nov-28 14:33N 44°34' E 037°57'0 0.0
2014-Nov-28 13:33N 44°34' E 037°57'0 0.0
2014-Nov-28 12:33N 44°34' E 037°57'0 0.0
2014-Nov-28 11:33N 44°34' E 037°57'0 0.0
2014-Nov-28 10:33N 44°34' E 037°57'0 0.0
2014-Nov-28 09:33N 44°34' E 037°57'0 0.0
2014-Nov-28 07:33N 44°34' E 037°57'0 0.1
2014-Nov-28 06:33N 44°34' E 037°57'0 0.2
2014-Nov-28 05:33N 44°34' E 037°57'0 0.0
2014-Nov-28 04:33N 44°34' E 037°57'0 0.0
2014-Nov-28 03:33N 44°34' E 037°57'0 0.0
2014-Nov-28 02:33N 44°34' E 037°57'0 0.0
2014-Nov-28 01:33N 44°34' E 037°57'0 0.0
2014-Nov-28 00:33N 44°34' E 037°57'0 0.0
2014-Nov-27 23:33N 44°34' E 037°57'0 0.0
2014-Nov-27 22:33N 44°34' E 037°57'0 0.0
2014-Nov-27 21:33N 44°34' E 037°57'0 0.0
2014-Nov-27 20:33N 44°34' E 037°57'0 0.0
2014-Nov-27 19:33N 44°34' E 037°57'0 0.0
2014-Nov-27 18:33N 44°34' E 037°57'0 0.0
2014-Nov-27 17:33N 44°34' E 037°57'0 0.0
2014-Nov-27 16:33N 44°34' E 037°57'0 0.0
2014-Nov-27 15:33N 44°34' E 037°57'0 0.0
2014-Nov-27 14:33N 44°34' E 037°57'0 0.0
2014-Nov-27 13:33N 44°34' E 037°57'2 2.5
2014-Nov-27 12:33N 44°32' E 037°54'10 9.8
2014-Nov-27 11:33N 44°26' E 037°43'1 0.8
2014-Nov-27 10:33N 44°26' E 037°44'1 0.9
2014-Nov-27 09:33N 44°27' E 037°43'3 2.5
2014-Nov-27 08:33N 44°27' E 037°40'1 1.5
2014-Nov-27 07:34N 44°27' E 037°42'1 1.4
2014-Nov-27 06:34N 44°26' E 037°44'1 1.4
2014-Nov-27 05:34N 44°26' E 037°46'6 5.9
2014-Nov-27 04:33N 44°30' E 037°39'1 1.4
2014-Nov-27 03:33N 44°29' E 037°41'2 1.6
2014-Nov-27 02:33N 44°29' E 037°43'2 2.1
2014-Nov-27 01:33N 44°28' E 037°46'4 3.9
2014-Nov-27 00:33N 44°25' E 037°42'2 1.6
2014-Nov-26 23:33N 44°26' E 037°42'2 1.9
2014-Nov-26 22:33N 44°27' E 037°40'1 1.4
2014-Nov-26 21:33N 44°27' E 037°42'1 1.5
2014-Nov-26 20:33N 44°26' E 037°44'5 5.0
2014-Nov-26 19:33N 44°23' E 037°38'8 7.9
2014-Nov-26 18:33N 44°22' E 037°27'1 1.0
2014-Nov-26 17:33N 44°22' E 037°28'1 0.9
2014-Nov-26 16:32N 44°22' E 037°29'1 1.0
2014-Nov-26 15:33N 44°23' E 037°31'1 1.0
2014-Nov-26 14:31N 44°23' E 037°32'1 1.0
2014-Nov-26 13:33N 44°23' E 037°33'1 0.9
2014-Nov-26 12:33N 44°23' E 037°35'1 0.9
2014-Nov-26 11:33N 44°23' E 037°36'2 2.1
2014-Nov-26 10:33N 44°25' E 037°35'1 0.7
2014-Nov-26 09:33N 44°25' E 037°36'1 0.9
2014-Nov-26 08:33N 44°25' E 037°37'1 1.0
2014-Nov-26 07:33N 44°25' E 037°38'1 1.1
2014-Nov-26 06:34N 44°25' E 037°40'1 1.3
2014-Nov-26 05:33N 44°25' E 037°42'1 1.4
2014-Nov-26 04:33N 44°25' E 037°44'1 0.9
2014-Nov-26 03:33N 44°26' E 037°42'4 4.4
2014-Nov-26 02:33N 44°27' E 037°36'1 1.1
2014-Nov-26 01:32N 44°26' E 037°38'3 2.7
2014-Nov-26 00:33N 44°26' E 037°34'1010.2
2014-Nov-25 23:33N 44°22' E 037°22'  
Track history (hours):
 
Tides and Currents Weather Stations Pressure Air Temp Water Temp Dewpoint Dewpoint Depression Visibility Wind Speed Wind Dir Waves Ship Positions

Deep Seas

Last reported at 2014-Dec-05 23:19 UTC. Time now 2014-Dec-19 01:31 UTC.
Position N 31°24' E 032°19'.
Warning: this ship's position is 13 days out of date.

Length 225 m; draft 13.1 m.

Type: Cargo ship. MMSI: 319138000.

Date/timePositionNaut miles runAvg speedWind from/ knotsBaromVisibWave heightAir tempDewpointWater temp
2014-Dec-05 23:19N 31°24' E 032°19'0 0.0
2014-Dec-05 22:19N 31°24' E 032°19'0 0.0
2014-Dec-05 21:34N 31°24' E 032°19'0 0.0
2014-Dec-05 19:25N 31°24' E 032°19'0 0.0
2014-Dec-05 18:31N 31°24' E 032°19'0 0.0
2014-Dec-05 13:25N 31°24' E 032°19'0 0.0
2014-Dec-05 12:34N 31°24' E 032°19'0 0.0
2014-Dec-05 10:04N 31°24' E 032°19'1 2.3
2014-Dec-05 09:32N 31°24' E 032°18'3310.5
2014-Dec-05 06:24N 31°49' E 031°52'911.1
2014-Dec-05 05:33N 31°56' E 031°45'2211.1
2014-Dec-05 03:33N 32°12' E 031°27'1411.1
2014-Dec-05 02:17N 32°22' E 031°15'31410.6
2014-Dec-03 20:33N 36°15' E 026°60'11 9.9
2014-Dec-03 19:28N 36°23' E 026°51'11 9.7
2014-Dec-03 18:20N 36°31' E 026°42'8 9.0
2014-Dec-03 17:30N 36°37' E 026°36'8 8.5
2014-Dec-03 16:33N 36°44' E 026°29'9 9.1
2014-Dec-03 15:32N 36°50' E 026°21'9 9.2
2014-Dec-03 14:33N 36°57' E 026°14'9 9.1
2014-Dec-03 13:33N 37°05' E 026°08'9 9.3
2014-Dec-03 12:34N 37°13' E 026°02'10 9.5
2014-Dec-03 11:34N 37°21' E 025°56'10 9.5
2014-Dec-03 10:34N 37°29' E 025°50'9 9.1
2014-Dec-03 09:34N 37°38' E 025°46'9 9.2
2014-Dec-03 08:33N 37°47' E 025°46'9 9.5
2014-Dec-03 07:34N 37°56' E 025°45'123 9.8
2014-Dec-02 19:07N 39°58' E 025°57'137 5.8
2014-Dec-01 19:24N 40°54' E 028°42'1010.7
2014-Dec-01 18:30N 40°56' E 028°54'7 7.5
2014-Dec-01 17:33N 41°02' E 028°60'1410.5
2014-Dec-01 16:12N 41°15' E 029°08'4 6.5
2014-Dec-01 15:33N 41°18' E 029°09'6 6.3
2014-Dec-01 14:33N 41°25' E 029°09'1 0.7
2014-Dec-01 13:18N 41°26' E 029°09'0 0.6
2014-Dec-01 12:33N 41°26' E 029°09'1 0.4
2014-Dec-01 11:20N 41°27' E 029°09'1 0.5
2014-Dec-01 09:28N 41°26' E 029°08'5 1.2
2014-Dec-01 05:30N 41°24' E 029°13'1010.3
2014-Dec-01 04:33N 41°26' E 029°25'1010.1
2014-Dec-01 03:33N 41°30' E 029°38'37810.5
2014-Nov-29 15:27N 44°23' E 037°17'1011.5
2014-Nov-29 14:33N 44°28' E 037°30'1211.9
2014-Nov-29 13:33N 44°33' E 037°45'8 8.2
2014-Nov-29 12:33N 44°34' E 037°57'0 0.0
2014-Nov-29 11:33N 44°34' E 037°57'0 0.0
2014-Nov-29 10:33N 44°34' E 037°57'0 0.0
2014-Nov-29 09:33N 44°34' E 037°57'0 0.1
2014-Nov-29 08:33N 44°34' E 037°57'0 0.0
2014-Nov-29 07:33N 44°34' E 037°57'0 0.0
2014-Nov-29 06:31N 44°34' E 037°57'0 0.0
2014-Nov-29 05:31N 44°34' E 037°57'0 0.0
2014-Nov-29 04:32N 44°34' E 037°57'0 0.0
2014-Nov-29 03:32N 44°34' E 037°57'0 0.0
2014-Nov-29 02:29N 44°34' E 037°57'0 0.0
2014-Nov-29 01:32N 44°34' E 037°57'0 0.0
2014-Nov-29 00:32N 44°34' E 037°57'0 0.0
2014-Nov-28 23:32N 44°34' E 037°57'0 0.0
2014-Nov-28 22:32N 44°34' E 037°57'0 0.0
2014-Nov-28 21:32N 44°34' E 037°57'0 0.1
2014-Nov-28 20:31N 44°34' E 037°57'0 0.0
2014-Nov-28 19:31N 44°34' E 037°57'0 0.0
2014-Nov-28 18:31N 44°34' E 037°57'0 0.1
2014-Nov-28 17:31N 44°34' E 037°57'0 0.0
2014-Nov-28 16:33N 44°34' E 037°57'0 0.0
2014-Nov-28 15:33N 44°34' E 037°57'0 0.0
2014-Nov-28 14:33N 44°34' E 037°57'0 0.0
2014-Nov-28 13:33N 44°34' E 037°57'0 0.0
2014-Nov-28 12:33N 44°34' E 037°57'0 0.0
2014-Nov-28 11:33N 44°34' E 037°57'0 0.0
2014-Nov-28 10:33N 44°34' E 037°57'0 0.0
2014-Nov-28 09:33N 44°34' E 037°57'0 0.0
2014-Nov-28 07:33N 44°34' E 037°57'0 0.1
2014-Nov-28 06:33N 44°34' E 037°57'0 0.2
2014-Nov-28 05:33N 44°34' E 037°57'0 0.0
2014-Nov-28 04:33N 44°34' E 037°57'0 0.0
2014-Nov-28 03:33N 44°34' E 037°57'0 0.0
2014-Nov-28 02:33N 44°34' E 037°57'0 0.0
2014-Nov-28 01:33N 44°34' E 037°57'0 0.0
2014-Nov-28 00:33N 44°34' E 037°57'0 0.0
2014-Nov-27 23:33N 44°34' E 037°57'0 0.0
2014-Nov-27 22:33N 44°34' E 037°57'0 0.0
2014-Nov-27 21:33N 44°34' E 037°57'0 0.0
2014-Nov-27 20:33N 44°34' E 037°57'0 0.0
2014-Nov-27 19:33N 44°34' E 037°57'0 0.0
2014-Nov-27 18:33N 44°34' E 037°57'0 0.0
2014-Nov-27 17:33N 44°34' E 037°57'0 0.0
2014-Nov-27 16:33N 44°34' E 037°57'0 0.0
2014-Nov-27 15:33N 44°34' E 037°57'0 0.0
2014-Nov-27 14:33N 44°34' E 037°57'0 0.0
2014-Nov-27 13:33N 44°34' E 037°57'2 2.5
2014-Nov-27 12:33N 44°32' E 037°54'10 9.8
2014-Nov-27 11:33N 44°26' E 037°43'1 0.8
2014-Nov-27 10:33N 44°26' E 037°44'1 0.9
2014-Nov-27 09:33N 44°27' E 037°43'3 2.5
2014-Nov-27 08:33N 44°27' E 037°40'1 1.5
2014-Nov-27 07:34N 44°27' E 037°42'1 1.4
2014-Nov-27 06:34N 44°26' E 037°44'1 1.4
2014-Nov-27 05:34N 44°26' E 037°46'6 5.9
2014-Nov-27 04:33N 44°30' E 037°39'1 1.4
2014-Nov-27 03:33N 44°29' E 037°41'2 1.6
2014-Nov-27 02:33N 44°29' E 037°43'2 2.1
2014-Nov-27 01:33N 44°28' E 037°46'4 3.9
2014-Nov-27 00:33N 44°25' E 037°42'2 1.6
2014-Nov-26 23:33N 44°26' E 037°42'2 1.9
2014-Nov-26 22:33N 44°27' E 037°40'1 1.4
2014-Nov-26 21:33N 44°27' E 037°42'1 1.5
2014-Nov-26 20:33N 44°26' E 037°44'5 5.0
2014-Nov-26 19:33N 44°23' E 037°38'8 7.9
2014-Nov-26 18:33N 44°22' E 037°27'1 1.0
2014-Nov-26 17:33N 44°22' E 037°28'1 0.9
2014-Nov-26 16:32N 44°22' E 037°29'1 1.0
2014-Nov-26 15:33N 44°23' E 037°31'1 1.0
2014-Nov-26 14:31N 44°23' E 037°32'1 1.0
2014-Nov-26 13:33N 44°23' E 037°33'1 0.9
2014-Nov-26 12:33N 44°23' E 037°35'1 0.9
2014-Nov-26 11:33N 44°23' E 037°36'2 2.1
2014-Nov-26 10:33N 44°25' E 037°35'1 0.7
2014-Nov-26 09:33N 44°25' E 037°36'1 0.9
2014-Nov-26 08:33N 44°25' E 037°37'1 1.0
2014-Nov-26 07:33N 44°25' E 037°38'1 1.1
2014-Nov-26 06:34N 44°25' E 037°40'1 1.3
2014-Nov-26 05:33N 44°25' E 037°42'1 1.4
2014-Nov-26 04:33N 44°25' E 037°44'1 0.9
2014-Nov-26 03:33N 44°26' E 037°42'4 4.4
2014-Nov-26 02:33N 44°27' E 037°36'1 1.1
2014-Nov-26 01:32N 44°26' E 037°38'3 2.7
2014-Nov-26 00:33N 44°26' E 037°34'1010.2
2014-Nov-25 23:33N 44°22' E 037°22'  

Dump ship's entire track history